Página principal
METAR-TAF:

METAR-TAF

Aeroportos :

Base Aérea de Thule

Thule, Gronelândia

latitude: 76-32N, longitude: 068-42W, altura: 77 m

Observação actual do tempo

O boletim foi feito há 47 minutos, às 16:56 UTC
Vento 12 kt de este
Temperatura -18°C
Humidade 77%
Pressão 996 hPa
Visibilidade 10 km ou mais
Céu limpo

METAR: BGTL 201656Z AUTO 10012KT 9999 CLR M18/M21 A2942 RMK AO2 SLP953 T11761209 TSNO $

Hora: 14:43 (17:43 UTC)

Previsão

O boletim foi feito há 43 minutos, às 17:00 UTC
Previsão válida de 19 às 17 UTC a 20 às 23 UTC
Vento 9 kt de es-nordeste
Visibilidade: 2209 m
Nuvens dispersasa uma altura de 5000 ft

TAF: BGTL 191700Z 1917/2023 06009KT 9999 SCT050 QNH2962INS TXM08/1918Z TNM16/2017Z LAST NO AMDS AFT 1919 NEXT 2209

Observações e previsões do tempo de mais de 4000 aeroportos (mensagens METAR e TAF).

As estações disponíveis são os pontos amarelos e vermelhos sobre o mapa.

Mova o rato sobre o mapa para ver o nome da estação.

Depois clique no ponto para visualizar as observações e previsões meteorológicas.

Para alterar o mapa : clique nos botões verdes com uma cruz preta para aumentar o zoom; no botão verde com uma pitada de zoom; ou nas setas verdes para mapas adjacentes.


METAR-TAF: